createdAt,value
2018-06-15T00:03:27.645Z,17.30
2018-06-15T00:07:31.015Z,17.30
2018-06-15T00:11:34.360Z,17.20
2018-06-15T00:15:37.737Z,17.20
2018-06-15T00:19:41.123Z,17.20
2018-06-15T00:23:44.483Z,17.20
2018-06-15T00:27:47.962Z,17.20
2018-06-15T00:31:51.297Z,17.20
2018-06-15T00:35:54.609Z,17.20
2018-06-15T00:39:57.946Z,17.20
2018-06-15T00:44:01.291Z,17.20
2018-06-15T00:48:04.671Z,17.20
2018-06-15T00:52:08.025Z,17.10
2018-06-15T00:56:11.354Z,17.10
2018-06-15T01:00:14.871Z,17.10
2018-06-15T01:04:18.203Z,17.10
2018-06-15T01:08:21.639Z,17.10
2018-06-15T01:12:24.974Z,17.10
2018-06-15T01:16:28.290Z,17.10
2018-06-15T01:20:31.788Z,17.10
2018-06-15T01:24:35.143Z,17.10
2018-06-15T01:28:38.474Z,17.00
2018-06-15T01:32:41.815Z,17.10
2018-06-15T01:36:45.151Z,17.00
2018-06-15T01:40:48.520Z,17.00
2018-06-15T01:44:58.324Z,17.00
2018-06-15T01:49:01.660Z,17.00
2018-06-15T01:53:05.007Z,17.00
2018-06-15T01:57:08.359Z,17.00
2018-06-15T02:01:11.878Z,17.00
2018-06-15T02:05:15.335Z,17.00
2018-06-15T02:09:18.679Z,17.00
2018-06-15T02:13:22.044Z,17.00
2018-06-15T02:17:25.403Z,17.00
2018-06-15T02:21:29.704Z,17.00
2018-06-15T02:25:33.043Z,17.00
2018-06-15T02:29:36.371Z,17.00
2018-06-15T02:33:39.712Z,17.00
2018-06-15T02:37:43.086Z,17.00
2018-06-15T02:41:47.716Z,17.00
2018-06-15T02:45:51.067Z,17.00
2018-06-15T02:49:54.400Z,17.00
2018-06-15T02:53:57.749Z,17.00
2018-06-15T02:58:01.117Z,17.00
2018-06-15T03:02:04.612Z,17.00
2018-06-15T03:06:07.958Z,16.90
2018-06-15T03:10:11.283Z,17.00
2018-06-15T03:14:14.627Z,17.00
2018-06-15T03:18:17.995Z,16.90
2018-06-15T03:22:21.328Z,16.90
2018-06-15T03:26:24.780Z,16.90
2018-06-15T03:30:28.164Z,16.90
2018-06-15T03:34:31.494Z,16.90
2018-06-15T03:38:34.875Z,16.90
2018-06-15T03:42:38.215Z,16.90
2018-06-15T03:46:41.556Z,16.90
2018-06-15T03:50:44.878Z,16.90
2018-06-15T03:54:48.304Z,16.90
2018-06-15T03:58:51.962Z,16.90
2018-06-15T04:02:55.294Z,16.90
2018-06-15T04:06:58.723Z,16.90
2018-06-15T04:11:02.055Z,16.90
2018-06-15T04:15:05.386Z,16.90
2018-06-15T04:19:08.749Z,16.90
2018-06-15T04:23:12.103Z,16.90
2018-06-15T04:27:15.454Z,16.80
2018-06-15T04:31:18.802Z,16.90
2018-06-15T04:35:22.184Z,16.90
2018-06-15T04:39:25.522Z,16.90
2018-06-15T04:43:28.907Z,16.90
2018-06-15T04:47:32.422Z,16.90
2018-06-15T04:51:35.759Z,16.90
2018-06-15T04:55:39.100Z,16.90
2018-06-15T04:59:42.447Z,16.90
2018-06-15T05:03:45.803Z,16.90
2018-06-15T05:07:49.135Z,17.00
2018-06-15T05:11:52.501Z,17.00
2018-06-15T05:15:55.867Z,17.00
2018-06-15T05:19:59.228Z,17.00
2018-06-15T05:24:02.585Z,17.10
2018-06-15T05:28:05.914Z,17.00
2018-06-15T05:32:09.320Z,17.10
2018-06-15T05:36:12.698Z,17.10
2018-06-15T05:40:16.075Z,17.10
2018-06-15T05:44:19.418Z,17.20
2018-06-15T05:48:22.754Z,17.30
2018-06-15T05:52:26.103Z,17.40
2018-06-15T05:56:29.511Z,17.40
2018-06-15T06:00:32.973Z,17.50
2018-06-15T06:04:36.335Z,17.60
2018-06-15T06:08:39.681Z,17.60
2018-06-15T06:12:43.063Z,17.70
2018-06-15T06:16:46.431Z,17.70
2018-06-15T06:20:49.800Z,17.80
2018-06-15T06:24:53.166Z,17.90
2018-06-15T06:28:56.483Z,18.00
2018-06-15T06:32:59.839Z,18.10
2018-06-15T06:37:03.174Z,18.10
2018-06-15T06:45:16.098Z,18.40
2018-06-15T06:49:19.456Z,18.50
2018-06-15T06:53:22.804Z,18.50
2018-06-15T06:57:26.145Z,18.60
2018-06-15T07:01:29.514Z,18.70
2018-06-15T07:05:32.860Z,18.80
2018-06-15T07:09:36.247Z,18.80
2018-06-15T07:13:39.590Z,18.90
2018-06-15T07:17:42.947Z,19.00
2018-06-15T07:21:46.306Z,19.10
2018-06-15T07:25:49.650Z,19.10
2018-06-15T07:29:52.975Z,19.20
2018-06-15T07:33:56.319Z,19.20
2018-06-15T07:37:59.656Z,19.30
2018-06-15T07:42:03.008Z,19.30
2018-06-15T07:46:06.411Z,19.40
2018-06-15T07:50:09.756Z,19.40
2018-06-15T07:54:13.116Z,19.50
2018-06-15T07:58:16.492Z,19.60
2018-06-15T08:02:19.850Z,19.70
2018-06-15T08:06:23.229Z,19.80
2018-06-15T08:10:26.615Z,19.90
2018-06-15T08:14:29.974Z,20.00
2018-06-15T08:18:33.361Z,20.10
2018-06-15T08:22:36.687Z,20.20
2018-06-15T08:26:40.033Z,20.30
2018-06-15T08:30:43.378Z,20.40
2018-06-15T08:34:46.725Z,20.50
2018-06-15T08:38:50.079Z,20.70
2018-06-15T08:42:53.446Z,20.80
2018-06-15T08:46:56.794Z,20.90
2018-06-15T08:51:00.160Z,20.90
2018-06-15T08:55:03.506Z,21.10
2018-06-15T08:59:07.648Z,21.20
2018-06-15T09:03:11.474Z,21.30
2018-06-15T09:07:14.846Z,21.40
2018-06-15T09:11:18.210Z,21.40
2018-06-15T09:15:21.635Z,21.50
2018-06-15T09:19:25.270Z,21.60
2018-06-15T09:23:28.629Z,21.70
2018-06-15T09:27:32.008Z,21.80
2018-06-15T09:31:35.433Z,21.90
2018-06-15T09:35:38.782Z,21.90
2018-06-15T09:39:42.143Z,21.90
2018-06-15T09:43:45.506Z,22.00
2018-06-15T09:47:48.870Z,22.00
2018-06-15T09:51:52.232Z,22.00
2018-06-15T09:55:56.827Z,22.10
2018-06-15T10:00:00.219Z,22.10
2018-06-15T10:04:03.588Z,22.20
2018-06-15T10:08:07.072Z,22.30
2018-06-15T10:12:10.438Z,22.50
2018-06-15T10:16:13.833Z,22.60
2018-06-15T10:20:17.216Z,22.70
2018-06-15T10:24:20.572Z,22.80
2018-06-15T10:28:24.547Z,22.90
2018-06-15T10:32:27.895Z,23.00
2018-06-15T10:36:31.326Z,23.10
2018-06-15T10:40:34.679Z,23.20
2018-06-15T10:44:38.042Z,23.40
2018-06-15T10:48:41.402Z,23.60
2018-06-15T10:52:44.773Z,23.80
2018-06-15T10:56:48.143Z,23.90
2018-06-15T11:00:51.514Z,24.00
2018-06-15T11:04:54.879Z,24.20
2018-06-15T11:08:58.286Z,24.20
2018-06-15T11:13:01.657Z,24.20
2018-06-15T11:17:05.083Z,24.20
2018-06-15T11:21:08.483Z,24.20
2018-06-15T11:25:11.839Z,24.20
2018-06-15T11:29:15.207Z,24.30
2018-06-15T11:33:18.548Z,24.30
2018-06-15T11:37:22.119Z,24.40
2018-06-15T11:41:25.553Z,24.50
2018-06-15T11:45:28.900Z,24.70
2018-06-15T11:49:32.286Z,24.90
2018-06-15T11:53:35.634Z,25.00
2018-06-15T11:57:39.002Z,25.20
2018-06-15T12:01:42.471Z,25.50
2018-06-15T12:05:45.854Z,25.80
2018-06-15T12:09:49.182Z,25.90
2018-06-15T12:13:52.555Z,26.00
2018-06-15T12:17:55.918Z,26.00
2018-06-15T12:21:59.258Z,26.00
2018-06-15T12:26:02.689Z,26.00
2018-06-15T12:30:06.175Z,26.00
2018-06-15T12:34:09.532Z,26.00
2018-06-15T12:38:12.870Z,26.00
2018-06-15T12:42:16.203Z,26.00
2018-06-15T12:46:19.570Z,26.10
2018-06-15T12:50:22.915Z,26.20
2018-06-15T12:54:26.240Z,26.30
2018-06-15T12:58:29.567Z,26.50
2018-06-15T13:02:33.083Z,26.60
2018-06-15T13:06:36.435Z,26.70
2018-06-15T13:10:39.786Z,26.80
2018-06-15T13:14:43.107Z,26.80
2018-06-15T13:18:47.283Z,26.90
2018-06-15T13:22:50.802Z,26.90
2018-06-15T13:26:54.147Z,26.90
2018-06-15T13:30:57.506Z,26.90
2018-06-15T13:35:00.871Z,26.90
2018-06-15T13:39:07.596Z,26.90
2018-06-15T13:43:10.956Z,26.90
2018-06-15T13:47:14.362Z,26.90
2018-06-15T13:51:18.222Z,26.80
2018-06-15T13:55:21.551Z,26.70
2018-06-15T13:59:24.978Z,26.60
2018-06-15T14:03:28.327Z,26.70
2018-06-15T14:07:31.699Z,26.60
2018-06-15T14:11:35.063Z,26.80
2018-06-15T14:15:38.474Z,26.80
2018-06-15T14:19:41.840Z,26.90
2018-06-15T14:23:45.215Z,27.10
2018-06-15T14:27:48.558Z,27.10
2018-06-15T14:31:52.167Z,27.20
2018-06-15T14:35:55.535Z,27.20
2018-06-15T14:39:58.852Z,27.30
2018-06-15T14:44:02.189Z,27.40
2018-06-15T14:48:05.649Z,27.50
2018-06-15T14:52:09.074Z,27.60
2018-06-15T14:56:12.424Z,27.60
2018-06-15T15:00:15.754Z,27.60
2018-06-15T15:04:19.087Z,27.50
2018-06-15T15:08:22.427Z,27.40
2018-06-15T15:12:25.824Z,27.30
2018-06-15T15:16:29.266Z,27.30
2018-06-15T15:20:33.008Z,27.30
2018-06-15T15:24:36.356Z,27.30
2018-06-15T15:28:39.978Z,27.30
2018-06-15T15:32:43.443Z,27.40
2018-06-15T15:36:46.855Z,27.40
2018-06-15T15:40:50.170Z,27.50
2018-06-15T15:44:53.593Z,27.60
2018-06-15T15:48:57.990Z,27.60
2018-06-15T15:53:01.311Z,27.60
2018-06-15T15:57:04.728Z,27.50
2018-06-15T16:01:08.070Z,27.30
2018-06-15T16:05:11.438Z,27.20
2018-06-15T16:09:14.907Z,27.10
2018-06-15T16:13:18.315Z,27.00
2018-06-15T16:17:21.647Z,27.00
2018-06-15T16:21:25.014Z,27.10
2018-06-15T16:25:28.408Z,27.30
2018-06-15T16:29:31.774Z,27.40
2018-06-15T16:33:35.115Z,27.50
2018-06-15T16:37:38.458Z,27.50
2018-06-15T16:41:41.802Z,27.50
2018-06-15T16:45:45.155Z,27.30
2018-06-15T16:49:48.514Z,27.20
2018-06-15T16:53:51.874Z,27.00
2018-06-15T16:57:55.244Z,26.90
2018-06-15T17:01:59.778Z,26.70
2018-06-15T17:06:03.128Z,26.60
2018-06-15T17:10:06.551Z,26.50
2018-06-15T17:14:09.991Z,26.40
2018-06-15T17:18:13.400Z,26.30
2018-06-15T17:22:16.815Z,26.20
2018-06-15T17:26:20.210Z,26.10
2018-06-15T17:30:24.427Z,26.00
2018-06-15T17:34:27.765Z,25.90
2018-06-15T17:38:31.117Z,25.80
2018-06-15T17:42:34.491Z,25.70
2018-06-15T17:46:38.028Z,25.60
2018-06-15T17:50:41.417Z,25.50
2018-06-15T17:54:44.801Z,25.40
2018-06-15T17:58:48.166Z,25.30
2018-06-15T18:02:51.796Z,25.10
2018-06-15T18:06:55.179Z,25.00
2018-06-15T18:10:58.555Z,24.90
2018-06-15T18:15:01.923Z,24.80
2018-06-15T18:19:05.391Z,24.70
2018-06-15T18:23:08.868Z,24.50
2018-06-15T18:27:12.358Z,24.40
2018-06-15T18:31:15.886Z,24.20
2018-06-15T18:35:19.328Z,24.10
2018-06-15T18:39:22.723Z,24.00
2018-06-15T18:43:26.080Z,23.90
2018-06-15T18:51:32.536Z,23.70
2018-06-15T18:55:35.938Z,23.60
2018-06-15T18:59:39.318Z,23.50
2018-06-15T19:03:42.734Z,23.30
2018-06-15T19:07:46.187Z,23.20
2018-06-15T19:11:49.611Z,23.10
2018-06-15T19:15:53.013Z,23.00
2018-06-15T19:19:56.451Z,22.80
2018-06-15T19:23:59.826Z,22.70
2018-06-15T19:28:03.198Z,22.60
2018-06-15T19:32:06.555Z,22.40
2018-06-15T19:36:09.921Z,22.30
2018-06-15T19:44:16.347Z,22.10
2018-06-15T19:48:19.719Z,22.00
2018-06-15T19:52:23.056Z,21.90
2018-06-15T19:56:26.416Z,21.80
2018-06-15T20:00:29.751Z,21.70
2018-06-15T20:08:36.175Z,21.50
2018-06-15T20:12:39.543Z,21.40
2018-06-15T20:16:42.908Z,21.30
2018-06-15T20:20:46.283Z,21.20
2018-06-15T20:24:49.658Z,21.00
2018-06-15T20:28:53.011Z,21.00
2018-06-15T20:32:56.371Z,20.80
2018-06-15T20:36:59.720Z,20.70
2018-06-15T20:41:03.125Z,20.60
2018-06-15T20:45:08.255Z,20.50
2018-06-15T20:49:11.648Z,20.40
2018-06-15T20:53:14.997Z,20.30
2018-06-15T20:57:18.318Z,20.30
2018-06-15T21:01:21.914Z,20.20
2018-06-15T21:05:25.256Z,20.10
2018-06-15T21:09:28.595Z,20.00
2018-06-15T21:13:31.938Z,19.90
2018-06-15T21:17:35.299Z,19.80
2018-06-15T21:21:38.723Z,19.70
2018-06-15T21:25:42.080Z,19.60
2018-06-15T21:29:47.487Z,19.50
2018-06-15T21:33:50.849Z,19.50
2018-06-15T21:37:54.346Z,19.40
2018-06-15T21:41:57.684Z,19.30
2018-06-15T21:46:01.000Z,19.20
2018-06-15T21:50:04.361Z,19.20
2018-06-15T21:54:07.698Z,19.10
2018-06-15T21:58:11.039Z,19.00
2018-06-15T22:02:14.382Z,18.90
2018-06-15T22:06:17.724Z,18.80
2018-06-15T22:10:21.162Z,18.80
2018-06-15T22:14:24.490Z,18.70
2018-06-15T22:18:27.859Z,18.60
2018-06-15T22:22:31.187Z,18.50
2018-06-15T22:26:34.511Z,18.50
2018-06-15T22:30:47.976Z,18.40
2018-06-15T22:34:51.507Z,18.30
2018-06-15T22:38:54.857Z,18.20
2018-06-15T22:42:58.213Z,18.20
2018-06-15T22:47:01.538Z,18.10
2018-06-15T22:51:04.887Z,18.00
2018-06-15T22:55:08.245Z,18.00
2018-06-15T22:59:11.581Z,17.90
2018-06-15T23:03:14.915Z,17.90
2018-06-15T23:07:18.219Z,17.80
2018-06-15T23:11:21.604Z,17.80
2018-06-15T23:15:24.966Z,17.70
2018-06-15T23:19:28.298Z,17.70
2018-06-15T23:23:31.635Z,17.70
2018-06-15T23:27:35.123Z,17.60
2018-06-15T23:31:38.443Z,17.60
2018-06-15T23:35:41.858Z,17.60
2018-06-15T23:39:45.339Z,17.60
2018-06-15T23:43:48.687Z,17.60
2018-06-15T23:47:52.024Z,17.60
2018-06-15T23:51:55.379Z,17.60
2018-06-15T23:55:58.754Z,17.60
